createdAt,value
2023-04-28T00:02:31.815Z,69.85
2023-04-28T00:12:34.160Z,69.98
2023-04-28T00:22:36.541Z,70.48
2023-04-28T00:32:41.529Z,72.18
2023-04-28T00:42:46.707Z,73.56
2023-04-28T00:52:52.109Z,74.30
2023-04-28T01:03:00.146Z,74.79
2023-04-28T01:13:12.807Z,74.90
2023-04-28T01:23:18.708Z,76.12
2023-04-28T01:33:26.979Z,77.00
2023-04-28T01:43:30.290Z,78.24
2023-04-28T01:53:34.415Z,79.58
2023-04-28T02:03:40.303Z,79.95
2023-04-28T02:13:43.973Z,79.83
2023-04-28T02:23:47.002Z,80.20
2023-04-28T02:33:53.961Z,80.39
2023-04-28T02:43:58.028Z,80.01
2023-04-28T02:54:00.360Z,83.82
2023-04-28T03:04:05.282Z,82.76
2023-04-28T03:14:13.746Z,81.69
2023-04-28T03:24:17.875Z,81.88
2023-04-28T03:34:25.639Z,80.38
2023-04-28T03:44:31.007Z,78.26
2023-04-28T03:54:33.985Z,73.07
2023-04-28T04:04:36.603Z,68.90
2023-04-28T04:14:42.053Z,65.87
2023-04-28T04:24:48.587Z,64.36
2023-04-28T04:34:53.399Z,63.21
2023-04-28T04:44:58.227Z,58.85
2023-04-28T04:55:06.332Z,57.38
2023-04-28T05:05:20.440Z,53.92
2023-04-28T05:15:45.186Z,52.19
2023-04-28T05:26:03.330Z,51.14
2023-04-28T05:36:27.810Z,49.68
2023-04-28T05:46:32.939Z,48.19
2023-04-28T05:56:40.100Z,47.29
2023-04-28T06:06:44.010Z,46.22
2023-04-28T06:16:46.529Z,46.95
2023-04-28T06:26:49.808Z,42.64
2023-04-28T06:36:54.371Z,39.81
2023-04-28T06:46:56.770Z,38.88
2023-04-28T06:57:00.398Z,37.86
2023-04-28T07:07:08.655Z,35.79
2023-04-28T07:17:11.145Z,35.64
2023-04-28T07:27:13.397Z,34.70
2023-04-28T07:37:15.628Z,33.58
2023-04-28T07:47:20.528Z,33.91
2023-04-28T07:57:30.784Z,33.98
2023-04-28T08:07:37.501Z,35.10
2023-04-28T08:17:39.752Z,33.52
2023-04-28T08:27:43.788Z,34.95
2023-04-28T08:37:46.712Z,34.99
2023-04-28T08:47:52.253Z,33.38
2023-04-28T08:57:58.512Z,34.07
2023-04-28T09:08:06.572Z,33.86
2023-04-28T09:18:12.451Z,33.40
2023-04-28T09:28:24.022Z,33.36
2023-04-28T09:38:31.414Z,33.22
2023-04-28T09:48:38.444Z,33.91
2023-04-28T09:58:43.978Z,33.45
2023-04-28T10:08:58.084Z,33.60
2023-04-28T10:19:07.681Z,33.63
2023-04-28T10:29:19.352Z,33.59
2023-04-28T10:39:22.559Z,33.83
2023-04-28T10:49:58.882Z,34.51
2023-04-28T11:00:29.080Z,33.59
2023-04-28T11:11:14.912Z,33.68
2023-04-28T11:21:23.622Z,34.05
2023-04-28T11:31:30.056Z,33.10
2023-04-28T11:41:37.093Z,33.27
2023-04-28T11:51:43.553Z,33.31
2023-04-28T12:01:54.589Z,32.58
2023-04-28T12:12:05.305Z,32.14
2023-04-28T12:22:18.315Z,32.25
2023-04-28T12:32:40.210Z,31.77
2023-04-28T12:42:44.357Z,31.99
2023-04-28T13:03:14.109Z,32.16
2023-04-28T13:13:23.209Z,32.68
2023-04-28T13:23:34.739Z,33.14
2023-04-28T13:33:53.178Z,32.56
2023-04-28T13:44:02.023Z,32.83
2023-04-28T13:54:10.906Z,32.85
2023-04-28T14:04:18.124Z,32.50
2023-04-28T14:14:23.048Z,32.46
2023-04-28T14:24:28.972Z,32.87
2023-04-28T14:34:33.133Z,33.69
2023-04-28T14:44:39.087Z,34.02
2023-04-28T14:54:46.489Z,34.23
2023-04-28T15:04:54.268Z,34.67
2023-04-28T15:15:01.310Z,35.11
2023-04-28T15:25:03.865Z,34.89
2023-04-28T15:35:09.175Z,35.58
2023-04-28T15:45:21.033Z,35.20
2023-04-28T15:55:24.307Z,35.55
2023-04-28T16:05:29.995Z,35.86
2023-04-28T16:15:34.854Z,36.21
2023-04-28T16:25:42.250Z,36.25
2023-04-28T16:35:45.187Z,36.57
2023-04-28T16:45:48.805Z,37.03
2023-04-28T16:55:57.030Z,37.04
2023-04-28T17:05:59.929Z,37.19
2023-04-28T17:16:04.380Z,37.35
2023-04-28T17:26:08.955Z,37.64
2023-04-28T17:36:17.038Z,37.78
2023-04-28T17:46:22.319Z,38.26
2023-04-28T17:56:24.835Z,38.72
2023-04-28T18:06:30.278Z,39.47
2023-04-28T18:16:34.734Z,39.63
2023-04-28T18:26:37.275Z,39.91
2023-04-28T18:36:39.427Z,39.75
2023-04-28T18:46:55.012Z,40.63
2023-04-28T18:56:59.986Z,40.72
2023-04-28T19:07:03.615Z,41.79
2023-04-28T19:17:09.191Z,41.94
2023-04-28T19:27:14.178Z,42.48
2023-04-28T19:37:21.189Z,43.05
2023-04-28T19:47:34.389Z,44.11
2023-04-28T19:57:43.069Z,44.91
2023-04-28T20:07:55.370Z,45.81
2023-04-28T20:17:59.444Z,46.80
2023-04-28T20:28:01.682Z,47.80
2023-04-28T20:38:07.376Z,48.47
2023-04-28T20:48:11.044Z,49.47
2023-04-28T20:58:15.526Z,49.99
2023-04-28T21:08:17.717Z,50.46
2023-04-28T21:18:25.447Z,50.93
2023-04-28T21:28:30.424Z,51.52
2023-04-28T21:38:40.683Z,52.70
2023-04-28T21:48:46.674Z,53.36
2023-04-28T21:58:52.376Z,54.41
2023-04-28T22:08:57.571Z,55.67
2023-04-28T22:19:03.957Z,56.46
2023-04-28T22:29:10.922Z,57.72
2023-04-28T22:39:17.733Z,59.09
2023-04-28T22:49:29.837Z,60.33
2023-04-28T22:59:35.291Z,61.39
2023-04-28T23:09:40.501Z,62.04
2023-04-28T23:19:45.317Z,62.54
2023-04-28T23:29:49.312Z,63.10
2023-04-28T23:39:52.112Z,64.13
2023-04-28T23:49:55.475Z,64.81
